Time;durP1;ratioP1;P1;durP2;ratioP2;P2;SDS_P1;SDS_P2;PMS_P1;PMS_P2;Temp;Humidity;BMP_temperature;BMP_pressure;BME280_temperature;BME280_humidity;BME280_pressure;Samples;Min_cycle;Max_cycle;Signal;HPM_P1;HPM_P2
2022/11/07 00:01:33;;;;;;;1.63;1.53;;;10.90;99.90;;;;;;4977554;28;21013;-69
2022/11/07 00:03:59;;;;;;;1.73;1.63;;;11.00;99.90;;;;;;4977607;28;21052;-69
2022/11/07 00:06:26;;;;;;;2.10;1.60;;;11.00;99.90;;;;;;4977493;28;20969;-69
2022/11/07 00:08:54;;;;;;;2.83;1.73;;;11.00;99.90;;;;;;4977681;28;20455;-68
2022/11/07 00:11:21;;;;;;;1.57;1.57;;;11.00;99.90;;;;;;4977593;28;20943;-68
2022/11/07 00:13:49;;;;;;;1.27;1.27;;;11.00;99.90;;;;;;4977789;28;20537;-68
2022/11/07 00:16:16;;;;;;;1.73;1.63;;;11.00;99.90;;;;;;4977836;28;20459;-69
2022/11/07 00:18:42;;;;;;;1.70;1.60;;;11.00;99.90;;;;;;4977799;28;20461;-68
2022/11/07 00:21:10;;;;;;;1.47;1.47;;;11.00;99.90;;;;;;4977729;28;20533;-69
2022/11/07 00:23:39;;;;;;;1.57;1.47;;;11.00;99.90;;;;;;4977385;28;20609;-68
2022/11/07 00:26:08;;;;;;;2.43;1.57;;;11.00;99.90;;;;;;4977546;28;20454;-69
2022/11/07 00:28:35;;;;;;;1.30;1.30;;;11.10;99.90;;;;;;4977396;28;20458;-69
2022/11/07 00:31:04;;;;;;;1.53;1.43;;;11.10;99.90;;;;;;4977579;28;20458;-69
2022/11/07 00:33:31;;;;;;;1.77;1.67;;;11.20;99.90;;;;;;4977431;28;20470;-69
2022/11/07 00:35:58;;;;;;;1.87;1.77;;;11.20;99.90;;;;;;4977371;28;20454;-69
2022/11/07 00:38:24;;;;;;;1.93;1.47;;;11.20;99.90;;;;;;4976970;28;20454;-69
2022/11/07 00:40:55;;;;;;;1.63;1.53;;;11.20;99.90;;;;;;4977591;28;20518;-69
2022/11/07 00:43:21;;;;;;;1.93;1.43;;;11.30;99.90;;;;;;4976827;28;20533;-69
2022/11/07 00:45:49;;;;;;;1.30;1.00;;;11.30;99.90;;;;;;4976981;28;21076;-69
2022/11/07 00:48:17;;;;;;;1.40;1.37;;;11.40;99.90;;;;;;4977099;28;20459;-69
2022/11/07 00:50:44;;;;;;;1.20;1.10;;;11.40;99.90;;;;;;4977165;28;20513;-69
2022/11/07 00:53:11;;;;;;;1.30;1.20;;;11.50;99.90;;;;;;4977604;28;20526;-69
2022/11/07 00:55:37;;;;;;;1.10;1.10;;;11.60;99.90;;;;;;4976993;28;20455;-69
2022/11/07 00:58:04;;;;;;;1.30;1.30;;;11.60;99.90;;;;;;4976869;28;20490;-69
2022/11/07 01:00:31;;;;;;;1.10;1.10;;;11.60;99.90;;;;;;4976759;28;20459;-69
2022/11/07 01:05:40;;;;;;;1.07;0.90;;;11.70;99.90;;;;;;4944453;28;20438;-69
2022/11/07 01:08:06;;;;;;;1.07;1.07;;;11.70;99.90;;;;;;4976826;28;20450;-69
2022/11/07 01:10:33;;;;;;;1.30;1.30;;;11.70;99.90;;;;;;4976404;28;20485;-69
2022/11/07 01:13:00;;;;;;;1.00;1.00;;;11.70;99.90;;;;;;4976625;28;20470;-69
2022/11/07 01:15:26;;;;;;;1.10;1.07;;;11.70;99.90;;;;;;4976356;28;20462;-69
2022/11/07 01:17:54;;;;;;;1.00;1.00;;;11.70;99.90;;;;;;4976281;28;20505;-69
2022/11/07 01:20:20;;;;;;;1.00;1.00;;;11.70;99.90;;;;;;4976537;28;20462;-69
2022/11/07 01:22:48;;;;;;;0.90;0.90;;;11.70;99.90;;;;;;4976476;28;20483;-69
2022/11/07 01:25:15;;;;;;;1.03;0.80;;;11.70;99.90;;;;;;4977542;28;20561;-68
2022/11/07 01:27:42;;;;;;;1.63;0.93;;;11.70;99.90;;;;;;4976547;28;20848;-69
2022/11/07 01:30:09;;;;;;;1.20;1.20;;;11.70;99.90;;;;;;4976265;28;20454;-69
2022/11/07 01:32:36;;;;;;;1.30;1.20;;;11.70;99.90;;;;;;4975934;28;20970;-69
2022/11/07 01:35:03;;;;;;;1.17;1.17;;;11.70;99.90;;;;;;4975774;28;20451;-69
2022/11/07 01:37:29;;;;;;;1.60;1.40;;;11.80;99.90;;;;;;4976159;28;20459;-69
2022/11/07 01:39:57;;;;;;;3.07;1.20;;;11.70;99.90;;;;;;4976181;28;20458;-69
2022/11/07 01:42:24;;;;;;;1.27;1.00;;;11.70;99.90;;;;;;4975936;28;20578;-69
2022/11/07 01:44:58;;;;;;;1.80;1.30;;;11.70;99.90;;;;;;4976113;28;20844;-69
2022/11/07 01:47:30;;;;;;;2.43;1.33;;;11.70;99.90;;;;;;4975999;28;20802;-69
2022/11/07 01:49:57;;;;;;;1.07;1.03;;;11.70;99.90;;;;;;4976004;28;20483;-69
2022/11/07 01:52:26;;;;;;;1.40;1.30;;;11.70;99.90;;;;;;4975911;28;20530;-70
2022/11/07 01:55:00;;;;;;;2.90;1.40;;;11.70;99.90;;;;;;4975610;28;20487;-69
2022/11/07 01:57:31;;;;;;;1.20;1.20;;;11.70;99.90;;;;;;4975977;28;20873;-69
2022/11/07 02:00:00;;;;;;;1.50;1.40;;;11.70;99.90;;;;;;4975390;28;20907;-69
2022/11/07 02:02:27;;;;;;;1.50;1.40;;;11.70;99.90;;;;;;4975347;28;20538;-69
2022/11/07 02:04:56;;;;;;;1.40;1.30;;;11.60;99.90;;;;;;4975545;28;20958;-70
2022/11/07 02:07:23;;;;;;;1.50;1.43;;;11.60;99.90;;;;;;4975649;28;20463;-70
2022/11/07 02:09:52;;;;;;;1.17;0.97;;;11.60;99.90;;;;;;4975348;28;20455;-70
2022/11/07 02:12:22;;;;;;;1.30;1.30;;;11.60;99.90;;;;;;4975496;28;20482;-70
2022/11/07 02:14:48;;;;;;;1.30;1.20;;;11.60;99.90;;;;;;4976517;28;20446;-68
2022/11/07 02:17:16;;;;;;;2.37;1.33;;;11.60;99.90;;;;;;4976481;28;20521;-68
2022/11/07 02:19:46;;;;;;;1.50;1.50;;;11.60;99.90;;;;;;4975765;28;20969;-68
2022/11/07 02:22:19;;;;;;;1.73;1.27;;;11.60;99.90;;;;;;4976176;28;20506;-69
2022/11/07 02:24:50;;;;;;;1.30;1.30;;;11.50;99.90;;;;;;4975914;28;20463;-69
2022/11/07 02:27:20;;;;;;;1.40;1.40;;;11.50;99.90;;;;;;4975631;28;20497;-69
2022/11/07 02:29:51;;;;;;;1.70;1.23;;;11.50;99.90;;;;;;4975285;28;20911;-69
2022/11/07 02:32:17;;;;;;;1.47;1.37;;;11.40;99.90;;;;;;4975335;28;20842;-68
2022/11/07 02:34:44;;;;;;;1.23;1.23;;;11.40;99.90;;;;;;4975355;28;20521;-69
2022/11/07 02:37:21;;;;;;;5.47;1.20;;;11.40;99.90;;;;;;4975130;28;20943;-69
2022/11/07 02:39:50;;;;;;;1.57;1.47;;;11.40;99.90;;;;;;4975091;28;20435;-69
2022/11/07 02:42:17;;;;;;;1.40;1.40;;;11.40;99.90;;;;;;4975066;28;20526;-69
2022/11/07 02:44:45;;;;;;;2.40;1.60;;;11.40;99.90;;;;;;4975317;28;20549;-69
2022/11/07 02:47:11;;;;;;;1.27;1.27;;;11.40;99.90;;;;;;4974610;28;20462;-69
2022/11/07 02:49:38;;;;;;;1.23;1.13;;;11.40;99.90;;;;;;4975418;28;20535;-68
2022/11/07 02:52:05;;;;;;;3.37;1.40;;;11.50;99.90;;;;;;4975160;28;20486;-68
2022/11/07 02:54:31;;;;;;;1.50;1.40;;;11.50;99.90;;;;;;4975200;28;20533;-69
2022/11/07 02:56:59;;;;;;;1.73;1.63;;;11.50;99.90;;;;;;4975256;28;20459;-69
2022/11/07 02:59:26;;;;;;;1.70;1.27;;;11.50;99.90;;;;;;4974817;28;20950;-68
2022/11/07 03:01:53;;;;;;;1.20;1.20;;;11.50;99.90;;;;;;4974974;28;20466;-69
2022/11/07 03:04:19;;;;;;;3.27;1.80;;;11.50;99.90;;;;;;4975105;28;20533;-69
2022/11/07 03:06:46;;;;;;;2.20;1.50;;;11.50;99.90;;;;;;4975413;28;20446;-70
2022/11/07 03:09:12;;;;;;;1.73;1.60;;;11.60;99.90;;;;;;4974983;28;20493;-70
2022/11/07 03:11:39;;;;;;;1.53;1.53;;;11.60;99.90;;;;;;4975179;28;20505;-68
2022/11/07 03:14:07;;;;;;;1.50;1.40;;;11.60;99.90;;;;;;4974939;28;20853;-68
2022/11/07 03:16:34;;;;;;;1.60;1.50;;;11.70;99.90;;;;;;4975036;28;20459;-70
2022/11/07 03:19:01;;;;;;;1.57;1.47;;;11.80;99.90;;;;;;4975099;28;20495;-68
2022/11/07 03:21:28;;;;;;;3.07;1.37;;;11.80;99.90;;;;;;4975029;28;20881;-69
2022/11/07 03:23:55;;;;;;;1.90;1.40;;;11.80;99.90;;;;;;4975028;28;20838;-69
2022/11/07 03:26:21;;;;;;;1.60;1.50;;;11.90;99.90;;;;;;4974800;28;20459;-69
2022/11/07 03:28:48;;;;;;;2.53;1.30;;;11.90;99.90;;;;;;4975201;28;20591;-69
2022/11/07 03:31:16;;;;;;;1.63;1.40;;;12.00;99.90;;;;;;4974916;28;20458;-69
2022/11/07 03:33:43;;;;;;;1.70;1.60;;;12.00;99.90;;;;;;4974575;28;20982;-69
2022/11/07 03:36:10;;;;;;;1.63;1.57;;;12.00;99.90;;;;;;4974876;28;20509;-70
2022/11/07 03:38:36;;;;;;;2.50;1.53;;;12.10;99.90;;;;;;4974606;28;20517;-68
2022/11/07 03:41:03;;;;;;;1.83;1.70;;;12.10;99.90;;;;;;4974826;28;20514;-68
2022/11/07 03:43:30;;;;;;;1.40;1.40;;;12.20;99.90;;;;;;4975457;28;20520;-68
2022/11/07 03:45:56;;;;;;;2.10;1.50;;;12.20;99.90;;;;;;4974811;28;20505;-69
2022/11/07 03:48:24;;;;;;;1.87;1.77;;;12.20;99.90;;;;;;4974811;28;20455;-68
2022/11/07 03:50:51;;;;;;;1.50;1.40;;;12.30;99.90;;;;;;4974617;28;20462;-69
2022/11/07 03:53:17;;;;;;;3.60;1.87;;;12.30;99.90;;;;;;4974807;28;20474;-69
2022/11/07 03:55:46;;;;;;;1.60;1.50;;;12.30;99.90;;;;;;4974920;28;20893;-69
2022/11/07 03:58:13;;;;;;;1.60;1.47;;;12.40;99.90;;;;;;4976916;28;20509;-70
2022/11/07 04:00:40;;;;;;;1.53;1.40;;;12.40;99.90;;;;;;4978333;28;20470;-69
2022/11/07 04:03:06;;;;;;;2.03;1.60;;;12.40;99.90;;;;;;4978252;28;20509;-69
2022/11/07 04:05:34;;;;;;;1.40;1.20;;;12.40;99.90;;;;;;4978165;28;20866;-69
2022/11/07 04:08:01;;;;;;;1.63;1.40;;;12.40;99.90;;;;;;4978108;28;20458;-69
2022/11/07 04:10:27;;;;;;;1.80;1.70;;;12.40;99.90;;;;;;4978253;28;20513;-69
2022/11/07 04:18:23;;;;;;;1.57;1.47;;;12.40;99.90;;;;;;4977934;28;20493;-69
2022/11/07 04:20:51;;;;;;;1.60;1.50;;;12.40;99.90;;;;;;4977912;28;20506;-69
2022/11/07 04:23:18;;;;;;;1.70;1.50;;;12.40;99.90;;;;;;4977897;28;20475;-69
2022/11/07 04:28:29;;;;;;;1.27;1.17;;;12.30;99.90;;;;;;4977688;28;20494;-69
2022/11/07 04:30:55;;;;;;;1.07;1.00;;;12.30;99.90;;;;;;4977612;28;20466;-69
2022/11/07 04:33:22;;;;;;;2.90;1.73;;;12.30;99.90;;;;;;4977400;28;20537;-69
2022/11/07 04:35:50;;;;;;;1.73;1.60;;;12.20;99.90;;;;;;4977795;28;20456;-68
2022/11/07 04:38:17;;;;;;;1.40;1.30;;;12.20;99.90;;;;;;4977547;28;20459;-68
2022/11/07 04:40:43;;;;;;;1.67;1.57;;;12.20;99.90;;;;;;4977541;28;20459;-67
2022/11/07 04:43:10;;;;;;;1.87;1.53;;;12.20;99.90;;;;;;4977051;28;20865;-67
2022/11/07 04:45:37;;;;;;;1.20;1.10;;;12.20;99.90;;;;;;4977488;28;20576;-70
2022/11/07 04:48:05;;;;;;;1.90;1.70;;;12.20;99.90;;;;;;4977243;28;20937;-68
2022/11/07 04:50:31;;;;;;;1.97;1.77;;;12.20;99.90;;;;;;4977287;28;20511;-69
2022/11/07 04:52:59;;;;;;;1.80;1.70;;;12.20;99.90;;;;;;4977157;28;20474;-69
2022/11/07 04:55:29;;;;;;;2.87;1.50;;;12.20;99.90;;;;;;4978207;28;20525;-69
2022/11/07 04:57:56;;;;;;;3.60;2.03;;;12.10;99.90;;;;;;4980907;28;20443;-69
2022/11/07 05:00:23;;;;;;;2.40;1.43;;;12.10;99.90;;;;;;4978492;28;20513;-69
2022/11/07 05:02:50;;;;;;;1.43;1.10;;;12.10;99.90;;;;;;4977451;28;20534;-69
2022/11/07 05:05:18;;;;;;;2.43;1.50;;;12.10;99.90;;;;;;4976813;28;20558;-69
2022/11/07 05:07:45;;;;;;;1.37;1.27;;;12.10;99.90;;;;;;4976872;28;20447;-69
2022/11/07 05:10:18;;;;;;;1.70;1.60;;;12.10;99.90;;;;;;4976073;28;20458;-70
2022/11/07 05:12:45;;;;;;;1.97;1.50;;;12.10;99.90;;;;;;4976549;28;20533;-68
2022/11/07 05:15:12;;;;;;;1.57;1.50;;;12.10;99.90;;;;;;4976776;28;20942;-70
2022/11/07 05:17:38;;;;;;;1.67;1.57;;;12.10;99.90;;;;;;4977353;28;20509;-69
2022/11/07 05:20:06;;;;;;;1.27;1.27;;;12.00;99.90;;;;;;4978090;28;20458;-69
2022/11/07 05:25:18;;;;;;;1.90;1.80;;;12.00;99.90;;;;;;4976550;28;20454;-70
2022/11/07 05:27:45;;;;;;;1.63;1.40;;;11.90;99.90;;;;;;4976494;28;20510;-69
2022/11/07 05:30:12;;;;;;;1.97;1.30;;;11.90;99.90;;;;;;4976256;28;20870;-69
2022/11/07 05:32:40;;;;;;;1.70;1.50;;;11.90;99.90;;;;;;4976448;28;20557;-70
2022/11/07 05:35:07;;;;;;;2.47;1.80;;;11.90;99.90;;;;;;4976198;28;20486;-70
2022/11/07 05:37:33;;;;;;;2.87;1.93;;;11.90;99.90;;;;;;4976521;28;20515;-69
2022/11/07 05:40:00;;;;;;;2.87;1.57;;;11.80;99.90;;;;;;4976493;28;20455;-68
2022/11/07 05:42:28;;;;;;;1.90;1.70;;;11.80;99.90;;;;;;4976386;28;20549;-69
2022/11/07 05:44:55;;;;;;;1.90;1.80;;;11.80;99.90;;;;;;4975776;28;20990;-70
2022/11/07 05:47:21;;;;;;;2.17;2.00;;;11.80;99.90;;;;;;4976140;28;20463;-70
2022/11/07 05:49:48;;;;;;;3.03;1.87;;;11.80;99.90;;;;;;4975959;28;20458;-70
2022/11/07 05:52:14;;;;;;;2.10;1.80;;;11.80;99.90;;;;;;4976112;28;20530;-70
2022/11/07 05:54:41;;;;;;;4.33;2.27;;;11.80;99.90;;;;;;4976250;28;20466;-70
2022/11/07 05:57:08;;;;;;;2.20;1.83;;;11.80;99.90;;;;;;4975925;28;20950;-70
2022/11/07 05:59:36;;;;;;;4.03;1.80;;;11.80;99.90;;;;;;4976252;28;20439;-69
2022/11/07 06:02:02;;;;;;;2.17;1.97;;;11.70;99.90;;;;;;4975429;28;20990;-69
2022/11/07 06:04:29;;;;;;;1.43;1.33;;;11.70;99.90;;;;;;4975448;28;20994;-70
2022/11/07 06:06:56;;;;;;;3.40;1.77;;;11.70;99.90;;;;;;4975685;28;20800;-69
2022/11/07 06:09:22;;;;;;;2.00;1.50;;;11.70;99.90;;;;;;4979108;28;20459;-70
2022/11/07 06:11:49;;;;;;;2.10;1.40;;;11.70;99.90;;;;;;4981487;28;20454;-69
2022/11/07 06:14:16;;;;;;;2.40;1.87;;;11.70;99.90;;;;;;4981652;28;20461;-69
2022/11/07 06:16:44;;;;;;;1.97;1.77;;;11.70;99.90;;;;;;4983127;28;20458;-69
2022/11/07 06:19:10;;;;;;;2.63;1.70;;;11.70;99.90;;;;;;4983902;28;20474;-68
2022/11/07 06:21:37;;;;;;;6.07;1.93;;;11.70;99.90;;;;;;4977058;28;20486;-69
2022/11/07 06:24:04;;;;;;;3.40;1.90;;;11.70;99.90;;;;;;4975536;28;20574;-69
2022/11/07 06:26:31;;;;;;;3.00;2.00;;;11.70;99.90;;;;;;4975756;28;20507;-69
2022/11/07 06:28:57;;;;;;;3.60;2.20;;;11.70;99.90;;;;;;4975556;28;20443;-69
2022/11/07 06:31:24;;;;;;;6.10;2.50;;;11.70;99.90;;;;;;4975483;28;20450;-68
2022/11/07 06:33:52;;;;;;;3.80;1.60;;;11.70;99.90;;;;;;4975553;28;20501;-69
2022/11/07 06:36:19;;;;;;;1.90;1.80;;;11.70;99.90;;;;;;4975908;28;20812;-69
2022/11/07 06:38:46;;;;;;;1.90;1.60;;;11.80;99.90;;;;;;4975357;28;20454;-69
2022/11/07 06:41:14;;;;;;;2.60;2.23;;;11.70;99.90;;;;;;4975180;28;20462;-70
2022/11/07 06:43:41;;;;;;;2.87;2.30;;;11.70;99.90;;;;;;4975259;28;20483;-68
2022/11/07 06:46:09;;;;;;;1.90;1.77;;;11.70;99.90;;;;;;4975165;28;20882;-69
2022/11/07 06:48:36;;;;;;;2.20;2.10;;;11.70;99.90;;;;;;4975157;28;20458;-69
2022/11/07 06:51:08;;;;;;;2.70;1.77;;;11.70;99.90;;;;;;4974990;28;21013;-68
2022/11/07 06:53:35;;;;;;;2.83;1.83;;;11.70;99.90;;;;;;4975203;28;20486;-69
2022/11/07 06:56:04;;;;;;;2.97;1.80;;;11.70;99.90;;;;;;4975097;28;20509;-70
2022/11/07 06:58:31;;;;;;;1.97;1.80;;;11.70;99.90;;;;;;4976595;28;20513;-69
2022/11/07 07:01:01;;;;;;;4.10;2.00;;;11.70;99.90;;;;;;4975635;28;20509;-69
2022/11/07 07:03:27;;;;;;;1.90;1.80;;;11.70;99.90;;;;;;4974903;28;20486;-69
2022/11/07 07:05:54;;;;;;;2.43;1.90;;;11.70;99.90;;;;;;4975056;28;20533;-69
2022/11/07 07:08:22;;;;;;;4.77;2.40;;;11.70;99.90;;;;;;4975028;28;20463;-69
2022/11/07 07:10:49;;;;;;;2.43;1.57;;;11.80;99.90;;;;;;4975093;28;20454;-71
2022/11/07 07:13:15;;;;;;;2.10;2.00;;;12.00;99.90;;;;;;4974712;28;20482;-70
2022/11/07 07:15:42;;;;;;;2.10;1.90;;;12.10;99.90;;;;;;4975736;28;20931;-68
2022/11/07 07:18:09;;;;;;;3.30;1.90;;;12.30;99.90;;;;;;4976264;28;20955;-69
2022/11/07 07:20:35;;;;;;;2.13;1.90;;;12.50;99.90;;;;;;4975602;28;20457;-68
2022/11/07 07:23:02;;;;;;;3.00;2.13;;;12.70;99.90;;;;;;4974952;28;20479;-68
2022/11/07 07:25:30;;;;;;;4.00;2.43;;;13.00;99.90;;;;;;4975028;28;20529;-68
2022/11/07 07:27:56;;;;;;;4.50;1.60;;;13.30;99.90;;;;;;4975063;28;20458;-70
2022/11/07 07:30:23;;;;;;;3.67;1.77;;;13.60;99.90;;;;;;4974563;28;20962;-69
2022/11/07 07:32:50;;;;;;;4.20;1.73;;;13.80;99.90;;;;;;4976320;28;20537;-68
2022/11/07 07:35:17;;;;;;;2.50;1.90;;;14.10;99.90;;;;;;4978556;28;20476;-68
2022/11/07 07:37:43;;;;;;;3.53;2.10;;;14.20;99.90;;;;;;4978647;28;20524;-68
2022/11/07 07:40:11;;;;;;;5.57;2.50;;;14.30;99.90;;;;;;4978593;28;20803;-68
2022/11/07 07:42:43;;;;;;;3.87;1.73;;;14.30;99.90;;;;;;4978557;28;20479;-69
2022/11/07 07:45:11;;;;;;;2.20;1.50;;;14.30;99.90;;;;;;4978505;28;20479;-67
2022/11/07 07:47:38;;;;;;;4.67;2.03;;;14.30;99.90;;;;;;4981860;28;20806;-69
2022/11/07 07:50:06;;;;;;;3.13;1.70;;;14.50;99.90;;;;;;4981702;28;20458;-69
2022/11/07 07:52:32;;;;;;;4.27;1.90;;;14.60;99.90;;;;;;4978466;28;20657;-69
2022/11/07 07:54:59;;;;;;;3.20;1.50;;;14.80;99.90;;;;;;4978140;28;20455;-69
2022/11/07 07:57:26;;;;;;;2.57;1.50;;;14.90;99.90;;;;;;4978255;28;20455;-70
2022/11/07 07:59:54;;;;;;;3.23;1.30;;;14.90;99.90;;;;;;4978089;28;21037;-68
2022/11/07 08:02:20;;;;;;;3.50;1.70;;;15.00;99.90;;;;;;4977741;28;20570;-68
2022/11/07 08:04:47;;;;;;;3.00;1.70;;;15.30;99.90;;;;;;4978163;28;20556;-69
2022/11/07 08:07:14;;;;;;;4.00;1.80;;;15.80;99.90;;;;;;4978370;28;20847;-69
2022/11/07 08:09:41;;;;;;;2.53;1.67;;;16.50;99.90;;;;;;4978172;28;20824;-69
2022/11/07 08:12:08;;;;;;;2.70;1.40;;;17.00;99.90;;;;;;4977627;28;20986;-69
2022/11/07 08:14:35;;;;;;;7.00;1.90;;;17.30;99.90;;;;;;4977887;28;20486;-69
2022/11/07 08:17:03;;;;;;;2.60;1.80;;;17.20;99.90;;;;;;4977554;28;20458;-69
2022/11/07 08:19:30;;;;;;;3.20;1.90;;;17.20;99.90;;;;;;4977332;28;20454;-69
2022/11/07 08:21:56;;;;;;;7.03;2.60;;;17.10;99.90;;;;;;4977457;28;20455;-69
2022/11/07 08:24:23;;;;;;;3.03;2.10;;;16.90;99.90;;;;;;4977523;28;20462;-69
2022/11/07 08:26:50;;;;;;;4.30;2.00;;;16.70;99.90;;;;;;4977741;28;20458;-69
2022/11/07 08:29:16;;;;;;;4.90;3.23;;;16.50;99.90;;;;;;4977374;28;20467;-68
2022/11/07 08:31:43;;;;;;;4.80;2.50;;;16.40;99.90;;;;;;4977437;28;20482;-68
2022/11/07 08:34:11;;;;;;;7.33;2.60;;;16.10;99.90;;;;;;4977335;28;20469;-68
2022/11/07 08:36:38;;;;;;;4.13;2.47;;;15.90;99.90;;;;;;4977334;28;20451;-70
2022/11/07 08:39:04;;;;;;;4.73;2.60;;;15.60;99.90;;;;;;4976914;28;21016;-68
2022/11/07 08:41:31;;;;;;;3.60;2.70;;;15.40;99.90;;;;;;4977193;28;20525;-70
2022/11/07 08:43:58;;;;;;;6.30;2.60;;;15.10;99.90;;;;;;4976034;28;20478;-69
2022/11/07 08:46:24;;;;;;;5.13;3.20;;;14.90;99.90;;;;;;4977095;28;20482;-69
2022/11/07 08:48:51;;;;;;;3.17;2.30;;;14.70;99.90;;;;;;4976803;28;20942;-69
2022/11/07 08:51:19;;;;;;;4.17;2.53;;;14.70;99.90;;;;;;4977131;28;20453;-68
2022/11/07 08:53:45;;;;;;;9.10;3.00;;;14.60;99.90;;;;;;4976935;28;20475;-68
2022/11/07 08:56:12;;;;;;;4.07;2.83;;;14.60;99.90;;;;;;4976879;28;20865;-69
2022/11/07 08:58:39;;;;;;;4.50;2.53;;;14.60;99.90;;;;;;4976947;28;20459;-68
2022/11/07 09:01:07;;;;;;;5.90;2.80;;;14.70;99.90;;;;;;4976643;28;20833;-68
2022/11/07 09:03:35;;;;;;;2.80;2.50;;;14.70;99.90;;;;;;4976440;28;20481;-69
2022/11/07 09:06:03;;;;;;;6.40;2.83;;;14.90;99.90;;;;;;4976673;28;21086;-69
2022/11/07 09:08:31;;;;;;;3.57;2.60;;;15.00;99.90;;;;;;4976831;28;20489;-69
2022/11/07 09:11:02;;;;;;;2.47;2.13;;;15.00;99.90;;;;;;4976376;28;20993;-69
2022/11/07 09:13:29;;;;;;;5.87;2.50;;;15.10;99.90;;;;;;4976508;28;20900;-69
2022/11/07 09:15:58;;;;;;;2.77;2.20;;;15.30;99.90;;;;;;4976308;28;20947;-69
2022/11/07 09:18:25;;;;;;;5.60;2.70;;;15.40;99.90;;;;;;4976561;28;20545;-69
2022/11/07 09:20:52;;;;;;;5.63;2.90;;;15.40;99.90;;;;;;4976519;28;20466;-68
2022/11/07 09:23:19;;;;;;;7.33;2.40;;;15.40;99.90;;;;;;4976623;28;20474;-69
2022/11/07 09:25:47;;;;;;;3.17;2.10;;;15.50;99.90;;;;;;4976344;28;20527;-69
2022/11/07 09:28:14;;;;;;;4.30;2.30;;;15.50;99.90;;;;;;4976476;28;20474;-69
2022/11/07 09:30:41;;;;;;;4.10;2.77;;;15.50;99.90;;;;;;4977346;28;20455;-69
2022/11/07 09:33:08;;;;;;;2.23;2.03;;;15.50;99.90;;;;;;4976849;28;20537;-69
2022/11/07 09:35:35;;;;;;;4.50;2.43;;;15.60;99.90;;;;;;4976552;28;20488;-69
2022/11/07 09:38:01;;;;;;;9.13;3.30;;;15.50;99.90;;;;;;4976236;28;20455;-69
2022/11/07 09:40:39;;;;;;;3.90;2.60;;;15.50;99.90;;;;;;4976662;28;20462;-69
2022/11/07 09:43:30;;;;;;;4.10;2.27;;;15.50;99.90;;;;;;4975893;28;20474;-70
2022/11/07 09:46:07;;;;;;;4.53;2.70;;;15.50;99.90;;;;;;4975823;28;20513;-69
2022/11/07 09:48:41;;;;;;;4.63;2.23;;;15.50;99.90;;;;;;4975853;28;20505;-68
2022/11/07 09:51:13;;;;;;;4.03;2.10;;;15.60;99.90;;;;;;4976063;28;20439;-69
2022/11/07 09:53:44;;;;;;;3.90;2.60;;;15.60;99.90;;;;;;4975911;28;20487;-69
2022/11/07 09:56:13;;;;;;;3.73;2.27;;;15.60;99.90;;;;;;4975686;28;20439;-68
2022/11/07 09:58:44;;;;;;;5.00;2.27;;;15.60;99.90;;;;;;4975981;28;20454;-69
2022/11/07 10:01:14;;;;;;;3.20;2.30;;;15.60;99.90;;;;;;4975644;28;20463;-69
2022/11/07 10:03:41;;;;;;;6.33;2.27;;;15.50;99.90;;;;;;4975729;28;20533;-69
2022/11/07 10:06:16;;;;;;;4.37;2.90;;;15.50;99.90;;;;;;4975398;28;20990;-68
2022/11/07 10:08:50;;;;;;;7.13;2.43;;;15.50;99.90;;;;;;4975771;28;20443;-69
2022/11/07 10:11:29;;;;;;;3.30;2.53;;;15.60;99.90;;;;;;4975734;28;20828;-69
2022/11/07 10:14:14;;;;;;;4.27;2.20;;;15.60;99.90;;;;;;4975560;28;20474;-69
2022/11/07 10:16:56;;;;;;;4.57;2.57;;;15.70;99.90;;;;;;4975386;28;20439;-70
2022/11/07 10:19:47;;;;;;;4.73;1.90;;;15.70;99.90;;;;;;4976347;28;20446;-69
2022/11/07 10:22:31;;;;;;;2.77;1.70;;;15.80;99.90;;;;;;4975711;28;20519;-69
2022/11/07 10:25:16;;;;;;;6.27;1.80;;;15.70;99.90;;;;;;4975367;28;20490;-69
2022/11/07 10:27:46;;;;;;;2.07;1.40;;;15.80;99.90;;;;;;4975275;28;20443;-70
2022/11/07 10:30:18;;;;;;;1.90;1.23;;;15.80;99.90;;;;;;4975920;28;20482;-70
2022/11/07 10:32:58;;;;;;;2.70;1.67;;;15.70;99.90;;;;;;4975158;28;20478;-70
2022/11/07 10:35:30;;;;;;;3.30;1.50;;;15.70;99.90;;;;;;4975607;28;20448;-69
2022/11/07 10:37:59;;;;;;;5.70;1.43;;;15.70;99.90;;;;;;4975071;28;20902;-70
2022/11/07 10:40:32;;;;;;;3.10;1.30;;;15.80;99.90;;;;;;4975508;28;20454;-70
2022/11/07 10:43:00;;;;;;;2.00;1.20;;;15.80;99.90;;;;;;4975068;28;20478;-69
2022/11/07 10:45:29;;;;;;;1.67;1.10;;;15.90;99.90;;;;;;4975075;28;20478;-70
2022/11/07 10:47:58;;;;;;;3.50;1.23;;;16.00;99.90;;;;;;4975192;28;20440;-69
2022/11/07 10:50:25;;;;;;;2.47;1.90;;;16.20;99.90;;;;;;4975850;28;20844;-72
2022/11/07 10:52:53;;;;;;;3.37;1.40;;;16.30;99.90;;;;;;4975568;28;20525;-70
2022/11/07 10:55:21;;;;;;;3.33;1.43;;;16.60;99.90;;;;;;4975584;28;20456;-69
2022/11/07 10:57:53;;;;;;;8.67;1.90;;;16.70;99.90;;;;;;4975004;28;20454;-70
2022/11/07 11:00:23;;;;;;;4.10;1.40;;;16.80;99.90;;;;;;4974897;28;20459;-70
2022/11/07 11:02:52;;;;;;;3.23;1.67;;;16.90;99.90;;;;;;4974542;28;20482;-70
2022/11/07 11:05:27;;;;;;;4.97;1.40;;;16.90;99.90;;;;;;4975744;28;20490;-71
2022/11/07 11:07:56;;;;;;;1.50;1.10;;;17.00;99.90;;;;;;4977315;28;20805;-71
2022/11/07 11:10:26;;;;;;;4.43;1.27;;;17.10;99.90;;;;;;4979415;28;20537;-70
2022/11/07 11:12:53;;;;;;;3.83;1.47;;;17.30;99.90;;;;;;4979239;28;20506;-71
2022/11/07 11:15:22;;;;;;;2.93;1.50;;;17.60;99.90;;;;;;4978781;28;20450;-71
2022/11/07 11:18:00;;;;;;;3.53;1.90;;;17.80;99.90;;;;;;4978765;28;20484;-70
2022/11/07 11:20:40;;;;;;;6.17;1.70;;;17.90;99.90;;;;;;4978356;28;20431;-67
2022/11/07 11:23:18;;;;;;;4.07;1.30;;;18.10;99.90;;;;;;4978757;28;20474;-69
2022/11/07 11:25:46;;;;;;;2.73;1.40;;;18.40;99.90;;;;;;4978772;28;20462;-68
2022/11/07 11:28:22;;;;;;;3.80;1.17;;;18.60;99.90;;;;;;4978383;28;20818;-69
2022/11/07 11:30:55;;;;;;;2.07;1.40;;;18.70;99.90;;;;;;4978058;28;20903;-68
2022/11/07 11:33:28;;;;;;;3.80;1.87;;;18.50;99.90;;;;;;4978433;28;20483;-69
2022/11/07 11:35:59;;;;;;;2.00;1.07;;;18.20;99.90;;;;;;4978239;28;20438;-70
2022/11/07 11:38:29;;;;;;;6.80;2.33;;;18.00;99.90;;;;;;4978412;28;20926;-70
2022/11/07 11:41:00;;;;;;;3.50;1.17;;;17.70;99.90;;;;;;4979100;28;20457;-70
2022/11/07 11:43:36;;;;;;;2.40;1.60;;;17.30;99.90;;;;;;4978522;28;20914;-69
2022/11/07 11:46:10;;;;;;;3.60;1.40;;;17.10;99.90;;;;;;4978584;28;20489;-69
2022/11/07 11:48:44;;;;;;;3.30;1.40;;;16.90;99.90;;;;;;4978647;28;20449;-69
2022/11/07 11:51:20;;;;;;;3.80;1.50;;;16.90;99.90;;;;;;4978863;28;20439;-70
2022/11/07 11:53:47;;;;;;;5.80;1.80;;;16.80;99.90;;;;;;4978947;28;20481;-70
2022/11/07 11:56:29;;;;;;;3.93;1.63;;;16.70;99.90;;;;;;4979225;28;20454;-69
2022/11/07 11:59:14;;;;;;;1.40;1.00;;;16.60;99.90;;;;;;4978138;28;20438;-70
2022/11/07 12:01:47;;;;;;;1.40;1.10;;;16.60;99.90;;;;;;4977874;28;20470;-69
2022/11/07 12:04:40;;;;;;;2.80;1.30;;;16.50;99.90;;;;;;4978728;28;20438;-69
2022/11/07 12:07:22;;;;;;;4.23;1.40;;;16.30;99.90;;;;;;4977940;28;20462;-69
2022/11/07 12:09:55;;;;;;;2.90;1.20;;;16.30;99.90;;;;;;4978459;28;20478;-69
2022/11/07 12:12:29;;;;;;;4.70;1.80;;;16.30;99.90;;;;;;4978804;28;20470;-69
2022/11/07 12:15:25;;;;;;;1.07;0.97;;;16.40;99.90;;;;;;4977760;28;20468;-69
2022/11/07 12:17:58;;;;;;;3.80;1.30;;;16.50;99.90;;;;;;4977815;28;20439;-70
2022/11/07 12:20:31;;;;;;;2.60;1.10;;;16.60;99.90;;;;;;4977460;28;20879;-69
2022/11/07 12:23:13;;;;;;;4.97;1.50;;;16.70;99.90;;;;;;4978239;28;20485;-69
2022/11/07 12:25:45;;;;;;;1.80;1.10;;;16.80;99.90;;;;;;4977656;28;20439;-69
2022/11/07 12:28:30;;;;;;;2.07;1.10;;;16.90;99.90;;;;;;4977671;28;20443;-70
2022/11/07 12:31:04;;;;;;;3.47;1.60;;;17.00;99.90;;;;;;4977260;28;20450;-69
2022/11/07 12:33:36;;;;;;;2.60;1.20;;;17.10;99.90;;;;;;4977175;28;20837;-70
2022/11/07 12:36:13;;;;;;;3.53;1.37;;;17.20;99.90;;;;;;4977442;28;20438;-70
2022/11/07 12:38:59;;;;;;;2.47;1.30;;;17.30;99.90;;;;;;4977190;28;20907;-70
2022/11/07 12:41:38;;;;;;;4.03;1.40;;;17.30;99.90;;;;;;4977347;28;20850;-69
2022/11/07 12:44:19;;;;;;;2.80;1.30;;;17.30;99.90;;;;;;4977088;28;20474;-70
2022/11/07 12:46:50;;;;;;;2.53;1.33;;;17.30;99.90;;;;;;4979011;28;20462;-70
2022/11/07 12:49:51;;;;;;;3.80;1.40;;;17.40;99.90;;;;;;4978231;28;20506;-69
2022/11/07 12:52:38;;;;;;;1.13;0.80;;;17.50;99.90;;;;;;4976820;28;20502;-70
2022/11/07 12:55:16;;;;;;;1.70;1.23;;;17.50;99.90;;;;;;4977156;28;20970;-69
2022/11/07 12:57:44;;;;;;;1.10;0.87;;;17.50;99.90;;;;;;4977458;28;20494;-70
2022/11/07 13:00:18;;;;;;;4.60;1.47;;;17.50;99.90;;;;;;4976980;28;20478;-71
2022/11/07 13:02:56;;;;;;;2.83;1.27;;;17.50;99.90;;;;;;4976883;28;20537;-71
2022/11/07 13:05:43;;;;;;;3.67;1.50;;;17.50;99.90;;;;;;4976968;28;20435;-71
2022/11/07 13:08:20;;;;;;;2.67;1.20;;;17.50;99.90;;;;;;4976855;28;20467;-70
2022/11/07 13:10:56;;;;;;;2.60;1.50;;;17.70;99.90;;;;;;4976802;28;20445;-71
2022/11/07 13:13:31;;;;;;;2.33;1.47;;;17.70;99.90;;;;;;4977605;28;20882;-70